Terminal Aerodrome Forecast
Issued by NWS

Home | Current Version | Previous Version | Text Only | Print | Product List | Glossary On
Versions: 1 2 3 4 5 6 7 8 9 10 11 12 13 14 15 16 17 18 19 20 21 22 23 24 25 26
000
FTUS42 KTAE 180500
TAFDHN
TAF
KDHN 180520Z 1806/1906 20003KT P6SM SCT250
      TEMPO 1809/1812 4SM BR FEW008
     FM181400 35005KT P6SM FEW250
     FM190400 00000KT P6SM SKC=

USA.gov is the U.S. government's official web portal to all federal, state and local government web resources and services.